Time;durP1;ratioP1;P1;durP2;ratioP2;P2;SDS_P1;SDS_P2;PMS_P1;PMS_P2;Temp;Humidity;BMP_temperature;BMP_pressure;BME280_temperature;BME280_humidity;BME280_pressure;Samples;Min_cycle;Max_cycle;Signal;HPM_P1;HPM_P2
2020/12/12 00:01:37;;;;;;;207.35;46.63;;;;;;;-2.39;100.00;96828.66;5072518;28;20072;-74
2020/12/12 00:04:03;;;;;;;182.23;48.60;;;;;;;-2.38;100.00;96842.31;5070620;28;20052;-74
2020/12/12 00:06:29;;;;;;;324.85;52.05;;;;;;;-2.44;100.00;96834.84;5072166;28;20053;-74
2020/12/12 00:08:54;;;;;;;158.35;48.13;;;;;;;-2.34;100.00;96836.16;5072223;28;20041;-74
2020/12/12 00:11:20;;;;;;;185.13;48.60;;;;;;;-2.30;100.00;96830.03;5071234;28;20123;-74
2020/12/12 00:13:46;;;;;;;185.93;50.47;;;;;;;-2.29;100.00;96834.22;5072346;28;20487;-74
2020/12/12 00:16:15;;;;;;;149.27;46.75;;;;;;;-2.04;100.00;96834.09;5071824;28;20059;-74
2020/12/12 00:18:42;;;;;;;120.53;44.03;;;;;;;-2.29;100.00;96818.00;5072375;28;20541;-74
2020/12/12 00:21:07;;;;;;;152.98;49.08;;;;;;;-2.31;100.00;96828.34;5072143;28;20371;-74
2020/12/12 00:23:33;;;;;;;156.18;48.15;;;;;;;-2.29;100.00;96833.41;5072003;28;20041;-74
2020/12/12 00:25:59;;;;;;;232.10;51.70;;;;;;;-2.31;100.00;96827.50;5071448;28;20056;-76
2020/12/12 00:28:25;;;;;;;218.30;50.03;;;;;;;-2.05;100.00;96844.44;5071846;28;20123;-74
2020/12/12 00:30:51;;;;;;;398.15;57.38;;;;;;;-2.38;100.00;96838.03;5071947;28;20128;-75
2020/12/12 01:57:41;;;;;;;108.25;37.00;;;;;;;-2.46;100.00;96816.13;4860870;23;20050;-69
2020/12/12 02:00:07;;;;;;;93.18;38.25;;;;;;;-2.43;100.00;96821.94;4844694;29;20084;-70
2020/12/12 02:02:36;;;;;;;106.50;39.78;;;;;;;-2.48;100.00;96812.78;4848320;29;20473;-70
2020/12/12 02:05:03;;;;;;;97.95;37.22;;;;;;;-2.45;100.00;96810.09;4851185;29;20050;-71
2020/12/12 02:07:30;;;;;;;102.25;39.47;;;;;;;-2.36;100.00;96807.16;4842882;29;20118;-70
2020/12/12 02:09:56;;;;;;;109.90;42.03;;;;;;;-2.49;100.00;96801.66;4842867;29;20073;-70
2020/12/12 02:12:21;;;;;;;109.88;42.20;;;;;;;-2.53;100.00;96805.28;4843234;29;20089;-70
2020/12/12 02:14:47;;;;;;;104.28;41.65;;;;;;;-2.50;100.00;96796.59;4842521;29;20395;-71
2020/12/12 02:17:13;;;;;;;101.05;40.13;;;;;;;-2.54;100.00;96795.91;4842899;29;20077;-70
2020/12/12 02:19:39;;;;;;;97.30;38.83;;;;;;;-2.31;100.00;96789.00;4842915;29;20054;-70
2020/12/12 02:22:07;;;;;;;98.25;39.38;;;;;;;-2.45;100.00;96790.41;4842675;29;20061;-70
2020/12/12 02:24:33;;;;;;;111.05;41.30;;;;;;;-2.52;100.00;96787.25;4842837;29;20046;-70
2020/12/12 02:27:07;;;;;;;111.38;39.60;;;;;;;-2.55;100.00;96787.38;4842384;29;20061;-70
2020/12/12 02:30:07;;;;;;;96.15;39.53;;;;;;;-2.54;100.00;96783.06;4842788;29;20397;-70
2020/12/12 02:32:25;;;;;;;104.03;40.97;;;;;;;-2.48;100.00;96782.00;4839898;29;20054;-71
2020/12/12 02:34:51;;;;;;;81.82;36.90;;;;;;;-2.44;100.00;96775.81;4842285;29;20054;-70
2020/12/12 02:37:17;;;;;;;94.32;39.60;;;;;;;-2.54;100.00;96776.19;4842462;29;20128;-70
2020/12/12 02:39:43;;;;;;;94.25;40.28;;;;;;;-2.57;100.00;96767.78;4842700;29;20079;-71
2020/12/12 02:42:09;;;;;;;103.28;40.08;;;;;;;-2.60;100.00;96757.66;4842130;29;20050;-70
2020/12/12 02:44:35;;;;;;;100.47;38.97;;;;;;;-2.73;100.00;96772.72;4842429;29;20069;-69
2020/12/12 02:47:00;;;;;;;134.52;45.55;;;;;;;-2.81;100.00;96773.03;4842040;29;20060;-69
2020/12/12 02:49:26;;;;;;;107.28;39.88;;;;;;;-2.67;100.00;96763.91;4841454;29;20060;-69
2020/12/12 02:51:52;;;;;;;113.53;42.03;;;;;;;-2.84;100.00;96765.44;4841916;29;20516;-70
2020/12/12 02:54:17;;;;;;;108.68;40.80;;;;;;;-2.89;100.00;96765.63;4842062;29;20061;-70
2020/12/12 02:56:43;;;;;;;93.88;39.25;;;;;;;-3.00;100.00;96767.75;4841554;29;20125;-69
2020/12/12 02:59:09;;;;;;;101.22;39.88;;;;;;;-3.01;100.00;96770.38;4841471;29;20462;-69
2020/12/12 03:01:39;;;;;;;103.57;40.00;;;;;;;-3.04;100.00;96761.09;4842363;29;20048;-69
2020/12/12 03:04:04;;;;;;;97.80;40.58;;;;;;;-2.92;100.00;96767.44;4841566;29;20494;-69
2020/12/12 03:06:30;;;;;;;106.57;41.33;;;;;;;-2.95;100.00;96750.47;4842025;29;20049;-68
2020/12/12 03:08:55;;;;;;;103.60;41.70;;;;;;;-2.97;100.00;96751.44;4841504;29;20113;-69
2020/12/12 03:11:21;;;;;;;109.22;40.92;;;;;;;-3.02;100.00;96756.72;4841987;29;20098;-69
2020/12/12 03:13:47;;;;;;;108.78;41.63;;;;;;;-3.00;100.00;96752.38;4841775;29;20054;-69
2020/12/12 03:16:12;;;;;;;98.40;40.00;;;;;;;-3.07;100.00;96749.22;4841328;29;20050;-69
2020/12/12 03:18:39;;;;;;;88.70;38.50;;;;;;;-3.04;100.00;96750.84;4842078;29;20054;-69
2020/12/12 03:21:04;;;;;;;95.78;38.95;;;;;;;-3.06;100.00;96748.34;4841759;29;20054;-67
2020/12/12 03:23:30;;;;;;;97.90;39.38;;;;;;;-3.04;100.00;96750.84;4842631;29;20509;-69
2020/12/12 03:25:56;;;;;;;90.35;37.88;;;;;;;-2.94;100.00;96754.69;4859041;29;20050;-69
2020/12/12 03:28:21;;;;;;;82.38;35.65;;;;;;;-2.93;100.00;96753.81;4859514;29;20482;-69
2020/12/12 03:30:47;;;;;;;87.10;37.75;;;;;;;-2.90;100.00;96750.31;4859438;29;20049;-69
2020/12/12 03:33:13;;;;;;;88.97;40.65;;;;;;;-2.90;100.00;96746.00;4859135;29;20045;-69
2020/12/12 03:35:39;;;;;;;93.10;38.15;;;;;;;-2.85;100.00;96752.69;4859056;29;20049;-69
2020/12/12 03:38:04;;;;;;;87.07;36.47;;;;;;;-2.92;100.00;96736.69;4859953;29;20055;-69
2020/12/12 03:40:30;;;;;;;79.68;35.00;;;;;;;-2.98;100.00;96742.91;4859907;29;20053;-70
2020/12/12 03:42:56;;;;;;;79.15;35.33;;;;;;;-3.01;100.00;96749.88;4859645;29;20049;-70
2020/12/12 03:45:22;;;;;;;78.97;35.53;;;;;;;-2.97;100.00;96748.84;4858001;29;20061;-70
2020/12/12 03:47:48;;;;;;;82.18;36.15;;;;;;;-2.94;100.00;96743.63;4852506;29;20050;-71
2020/12/12 03:50:14;;;;;;;79.47;37.05;;;;;;;-2.99;100.00;96741.22;4858405;29;20049;-69
2020/12/12 03:52:41;;;;;;;85.05;37.67;;;;;;;-3.00;100.00;96746.41;4859478;29;20564;-69
2020/12/12 03:55:07;;;;;;;79.15;36.67;;;;;;;-2.95;100.00;96745.34;4859147;29;20057;-69
2020/12/12 03:57:33;;;;;;;79.53;35.92;;;;;;;-2.91;100.00;96752.00;4859478;29;20052;-70
2020/12/12 03:59:59;;;;;;;79.82;35.22;;;;;;;-2.95;100.00;96747.06;4859635;29;20061;-69
2020/12/12 04:02:25;;;;;;;75.32;35.08;;;;;;;-2.98;100.00;96754.88;4859544;29;20072;-69
2020/12/12 04:04:51;;;;;;;74.10;33.60;;;;;;;-3.02;100.00;96756.72;4859440;29;20053;-69
2020/12/12 04:07:17;;;;;;;88.68;37.35;;;;;;;-2.84;100.00;96741.50;4860577;29;20057;-69
2020/12/12 04:09:42;;;;;;;79.97;35.22;;;;;;;-2.85;100.00;96745.00;4863110;29;20083;-69
2020/12/12 04:12:08;;;;;;;70.30;34.38;;;;;;;-2.94;100.00;96747.00;4861944;29;20053;-69
2020/12/12 04:14:34;;;;;;;72.47;34.17;;;;;;;-3.02;100.00;96751.59;4863508;29;20193;-69
2020/12/12 04:17:00;;;;;;;76.57;34.20;;;;;;;-3.03;100.00;96761.91;4862737;29;20412;-70
2020/12/12 04:19:25;;;;;;;81.47;36.45;;;;;;;-2.91;100.00;96749.44;4863377;29;20058;-68
2020/12/12 04:21:51;;;;;;;87.70;40.40;;;;;;;-3.08;100.00;96750.09;4846460;29;20049;-69
2020/12/12 04:24:17;;;;;;;87.18;39.50;;;;;;;-3.19;100.00;96748.88;4862344;29;20049;-69
2020/12/12 04:26:43;;;;;;;92.55;42.90;;;;;;;-3.26;100.00;96743.97;4862910;29;20398;-70
2020/12/12 04:29:09;;;;;;;108.22;44.65;;;;;;;-3.31;100.00;96750.97;4862698;29;20049;-70
2020/12/12 04:31:34;;;;;;;94.93;41.92;;;;;;;-3.41;100.00;96759.91;4862360;29;20057;-69
2020/12/12 04:34:00;;;;;;;97.53;43.67;;;;;;;-3.49;100.00;96757.63;4862440;29;20050;-70
2020/12/12 04:36:26;;;;;;;105.40;45.20;;;;;;;-3.46;100.00;96747.28;4863016;29;20056;-69
2020/12/12 04:38:52;;;;;;;103.93;43.70;;;;;;;-3.34;100.00;96743.41;4862804;29;20049;-69
2020/12/12 04:41:18;;;;;;;100.15;45.25;;;;;;;-3.40;100.00;96753.88;4862311;29;20676;-69
2020/12/12 04:43:44;;;;;;;104.95;46.83;;;;;;;-3.48;100.00;96750.78;4862675;29;20121;-69
2020/12/12 04:46:14;;;;;;;109.60;47.47;;;;;;;-3.52;100.00;96752.63;4862477;29;20049;-69
2020/12/12 04:48:40;;;;;;;107.03;46.17;;;;;;;-3.60;100.00;96755.47;4858941;29;20049;-69
2020/12/12 04:51:05;;;;;;;110.10;48.33;;;;;;;-3.58;100.00;96759.69;4852292;29;20073;-69
2020/12/12 04:53:32;;;;;;;108.55;47.47;;;;;;;-3.42;100.00;96763.38;4841017;29;20122;-70
2020/12/12 04:56:00;;;;;;;94.80;43.13;;;;;;;-3.45;100.00;96755.78;4843858;29;20057;-77
2020/12/12 04:58:28;;;;;;;98.05;46.63;;;;;;;-3.54;100.00;96758.69;4843863;29;20545;-69
2020/12/12 05:00:56;;;;;;;106.53;47.13;;;;;;;-3.64;100.00;96743.66;4843978;29;20046;-69
2020/12/12 05:03:24;;;;;;;105.00;47.10;;;;;;;-3.71;100.00;96751.63;4843143;29;20524;-69
2020/12/12 05:05:50;;;;;;;104.88;44.00;;;;;;;-3.74;100.00;96752.56;4843610;29;20094;-69
2020/12/12 05:08:16;;;;;;;105.90;46.22;;;;;;;-3.71;100.00;96757.56;4842849;29;20050;-69
2020/12/12 05:10:45;;;;;;;100.82;44.17;;;;;;;-3.69;100.00;96760.94;4843906;29;20045;-69
2020/12/12 05:13:25;;;;;;;98.05;42.63;;;;;;;-3.51;100.00;96764.53;4843293;29;20459;-68
2020/12/12 05:15:56;;;;;;;90.53;42.30;;;;;;;-3.61;100.00;96771.72;4843961;29;20062;-70
2020/12/12 05:18:23;;;;;;;91.00;41.50;;;;;;;-3.51;100.00;96774.78;4842455;29;20057;-69
2020/12/12 05:20:49;;;;;;;98.05;45.35;;;;;;;-3.52;100.00;96769.72;4843554;29;20061;-68
2020/12/12 05:23:24;;;;;;;104.72;47.15;;;;;;;-3.48;100.00;96766.16;4843424;29;20617;-69
2020/12/12 05:25:51;;;;;;;104.65;46.45;;;;;;;-3.50;100.00;96770.50;4843702;29;20050;-72
2020/12/12 05:28:20;;;;;;;102.22;46.22;;;;;;;-3.55;100.00;96762.13;4842835;29;20095;-69
2020/12/12 05:30:49;;;;;;;108.50;46.60;;;;;;;-3.55;100.00;96759.56;4843101;29;20046;-69
2020/12/12 05:33:18;;;;;;;100.45;45.33;;;;;;;-3.73;100.00;96759.34;4842425;29;20123;-71
2020/12/12 05:35:44;;;;;;;113.85;48.63;;;;;;;-3.79;100.00;96760.41;4843159;29;20494;-72
2020/12/12 05:38:10;;;;;;;101.95;46.38;;;;;;;-3.82;100.00;96762.25;4842813;29;20144;-71
2020/12/12 05:40:41;;;;;;;106.22;47.33;;;;;;;-4.01;100.00;96762.88;4828934;29;20053;-70
2020/12/12 05:43:09;;;;;;;100.13;45.22;;;;;;;-4.08;100.00;96758.88;4842901;29;20050;-73
2020/12/12 05:45:36;;;;;;;90.63;43.83;;;;;;;-4.09;100.00;96766.59;4843096;29;20081;-73
2020/12/12 05:48:04;;;;;;;95.53;40.08;;;;;;;-4.06;100.00;96766.50;4843069;29;20133;-78
2020/12/12 05:50:29;;;;;;;93.53;40.22;;;;;;;-4.02;100.00;96774.00;4826048;29;20042;-73
2020/12/12 05:52:56;;;;;;;91.80;40.00;;;;;;;-3.96;100.00;96773.78;4826976;29;20060;-73
2020/12/12 05:55:29;;;;;;;94.78;39.88;;;;;;;-3.79;100.00;96769.81;4842740;29;20057;-73
2020/12/12 05:57:56;;;;;;;84.65;37.42;;;;;;;-3.60;100.00;96757.19;4842993;29;20409;-73
2020/12/12 06:00:23;;;;;;;79.47;37.40;;;;;;;-3.65;100.00;96772.72;4825436;29;20118;-74
2020/12/12 06:02:54;;;;;;;80.32;36.35;;;;;;;-3.61;100.00;96769.16;4842619;29;20062;-73
2020/12/12 06:05:31;;;;;;;78.32;36.78;;;;;;;-3.58;100.00;96762.25;4842255;29;20058;-71
2020/12/12 06:08:06;;;;;;;79.10;35.00;;;;;;;-3.67;100.00;96761.69;4842731;29;20438;-71
2020/12/12 06:10:33;;;;;;;94.32;39.60;;;;;;;-3.58;100.00;96762.25;4842532;29;20045;-71
2020/12/12 06:13:01;;;;;;;94.47;40.05;;;;;;;-3.58;100.00;96764.81;4842700;29;20050;-72
2020/12/12 06:15:39;;;;;;;99.07;40.17;;;;;;;-3.51;100.00;96761.13;4842020;29;20073;-72
2020/12/12 06:18:26;;;;;;;98.43;40.80;;;;;;;-3.53;100.00;96761.19;4842397;29;20080;-75
2020/12/12 06:20:53;;;;;;;101.53;40.45;;;;;;;-3.44;100.00;96748.03;4831784;29;20042;-73
2020/12/12 06:23:20;;;;;;;94.10;38.33;;;;;;;-3.37;100.00;96755.50;4842125;29;20050;-72
2020/12/12 06:25:46;;;;;;;108.60;42.45;;;;;;;-3.34;100.00;96757.94;4841995;29;20042;-74
2020/12/12 06:28:24;;;;;;;115.93;43.47;;;;;;;-3.31;100.00;96748.41;4841277;29;20046;-73
2020/12/12 06:30:51;;;;;;;104.20;41.35;;;;;;;-3.29;100.00;96766.28;4841517;29;20046;-74
2020/12/12 06:33:17;;;;;;;116.18;41.72;;;;;;;-3.25;100.00;96771.25;4842135;29;20053;-73
2020/12/12 06:35:43;;;;;;;98.68;40.90;;;;;;;-3.06;100.00;96770.56;4841692;29;20410;-72
2020/12/12 06:38:27;;;;;;;97.68;39.80;;;;;;;-2.87;100.00;96760.44;4841422;29;20129;-73
2020/12/12 06:40:57;;;;;;;92.43;37.60;;;;;;;-2.98;100.00;96752.31;4841998;29;20187;-72
2020/12/12 06:43:36;;;;;;;79.75;34.42;;;;;;;-2.84;100.00;96754.34;4841797;29;20122;-73
2020/12/12 06:46:05;;;;;;;84.78;36.50;;;;;;;-2.82;100.00;96767.94;4841572;29;20102;-73
2020/12/12 06:48:32;;;;;;;71.82;33.30;;;;;;;-2.70;100.00;96752.06;4841397;29;20073;-73
2020/12/12 06:51:01;;;;;;;72.10;33.00;;;;;;;-2.61;100.00;96753.41;4841605;29;20500;-73
2020/12/12 06:53:28;;;;;;;70.13;31.75;;;;;;;-2.64;100.00;96751.81;4825521;29;20046;-73
2020/12/12 06:56:11;;;;;;;77.25;33.60;;;;;;;-2.77;100.00;96760.91;4841714;29;20053;-73
2020/12/12 06:58:38;;;;;;;74.90;32.60;;;;;;;-2.73;100.00;96762.47;4841483;29;20110;-73
2020/12/12 07:01:30;;;;;;;82.57;35.22;;;;;;;-2.76;100.00;96757.44;4841645;29;20062;-73
2020/12/12 07:04:01;;;;;;;73.82;33.05;;;;;;;-2.77;100.00;96759.16;4842031;29;20114;-73
2020/12/12 07:06:29;;;;;;;76.43;32.67;;;;;;;-2.57;100.00;96763.50;4841443;29;20046;-73
2020/12/12 07:09:06;;;;;;;73.68;32.78;;;;;;;-2.52;100.00;96771.00;4841559;29;20045;-73
2020/12/12 07:11:32;;;;;;;82.72;34.35;;;;;;;-2.55;100.00;96774.56;4806718;29;20167;-73
2020/12/12 07:13:59;;;;;;;78.95;33.88;;;;;;;-2.54;100.00;96781.31;4823515;29;20133;-74
2020/12/12 07:16:25;;;;;;;78.55;34.72;;;;;;;-2.49;100.00;96780.31;4813669;29;20045;-72
2020/12/12 07:18:52;;;;;;;75.90;33.70;;;;;;;-2.48;100.00;96771.75;4840544;29;20053;-72
2020/12/12 07:21:19;;;;;;;81.40;34.60;;;;;;;-2.57;100.00;96776.31;4840627;29;20060;-72
2020/12/12 07:23:48;;;;;;;79.88;35.35;;;;;;;-2.53;100.00;96775.31;4841655;29;20046;-73
2020/12/12 07:26:15;;;;;;;81.95;34.75;;;;;;;-2.37;100.00;96774.69;4839919;29;20103;-72
2020/12/12 07:28:41;;;;;;;75.55;35.75;;;;;;;-2.35;100.00;96776.31;4841475;29;20061;-73
2020/12/12 07:31:07;;;;;;;77.20;35.03;;;;;;;-2.42;100.00;96786.88;4840961;29;20064;-77
2020/12/12 07:33:33;;;;;;;80.07;36.22;;;;;;;-2.43;100.00;96786.03;4841179;29;20077;-73
2020/12/12 07:35:59;;;;;;;80.53;36.55;;;;;;;-2.33;100.00;96776.25;4841583;29;20114;-71
2020/12/12 07:38:25;;;;;;;74.32;34.70;;;;;;;-2.38;100.00;96776.44;4840985;29;20054;-74
2020/12/12 07:40:52;;;;;;;78.65;34.13;;;;;;;-2.22;100.00;96781.75;4841021;29;20072;-73
2020/12/12 07:43:17;;;;;;;81.47;36.28;;;;;;;-2.21;100.00;96790.28;4840678;29;20062;-73
2020/12/12 07:48:16;;;;;;;83.82;36.13;;;;;;;-2.19;100.00;96788.50;4838779;29;20065;-74
2020/12/12 07:50:42;;;;;;;83.20;35.05;;;;;;;-2.11;100.00;96796.72;4841345;29;20058;-73
2020/12/12 07:53:09;;;;;;;74.47;34.30;;;;;;;-2.00;100.00;96793.69;4841389;29;20505;-73
2020/12/12 07:55:41;;;;;;;70.38;32.13;;;;;;;-1.97;100.00;96793.56;4841075;29;20049;-74
2020/12/12 07:58:23;;;;;;;79.10;34.43;;;;;;;-1.95;100.00;96796.91;4838773;29;20119;-72
2020/12/12 08:01:00;;;;;;;65.35;31.58;;;;;;;-1.93;100.00;96796.84;4840028;29;20050;-72
2020/12/12 08:03:26;;;;;;;65.93;32.70;;;;;;;-1.82;100.00;96792.91;4840721;29;20049;-72
2020/12/12 08:06:11;;;;;;;66.38;31.20;;;;;;;-1.48;100.00;96791.44;4841113;29;20050;-75
2020/12/12 08:08:38;;;;;;;70.18;31.92;;;;;;;-1.72;100.00;96788.22;4838898;29;20065;-74
2020/12/12 08:11:05;;;;;;;74.30;33.00;;;;;;;-1.78;100.00;96803.88;4841431;29;20106;-73
2020/12/12 08:13:31;;;;;;;66.15;30.67;;;;;;;-1.80;100.00;96798.81;4840493;29;20050;-73
2020/12/12 08:16:15;;;;;;;71.18;32.35;;;;;;;-1.80;100.00;96803.13;4821256;29;20585;-73
2020/12/12 08:18:40;;;;;;;69.95;32.83;;;;;;;-1.79;100.00;96802.25;4826734;29;20054;-77
2020/12/12 08:21:09;;;;;;;69.85;33.95;;;;;;;-1.67;100.00;96800.84;4806416;29;20076;-73
2020/12/12 08:23:37;;;;;;;76.75;33.80;;;;;;;-1.78;100.00;96798.75;4822788;29;20087;-73
2020/12/12 08:26:03;;;;;;;74.65;35.22;;;;;;;-1.66;100.00;96807.69;4834566;29;20060;-73
2020/12/12 08:28:30;;;;;;;74.65;34.28;;;;;;;-1.66;100.00;96795.66;4834753;29;20077;-73
2020/12/12 08:31:11;;;;;;;71.82;32.88;;;;;;;-1.67;100.00;96814.56;4822579;29;20517;-73
2020/12/12 08:33:37;;;;;;;78.38;33.42;;;;;;;-1.66;100.00;96817.94;4837701;29;20638;-74
2020/12/12 08:36:20;;;;;;;74.28;33.92;;;;;;;-1.70;100.00;96803.56;4827395;29;20054;-75
2020/12/12 08:38:52;;;;;;;78.13;35.33;;;;;;;-1.60;100.00;96822.81;4826544;29;20046;-73
2020/12/12 08:41:18;;;;;;;69.55;34.35;;;;;;;-1.51;100.00;96807.00;4840338;29;20426;-78
2020/12/12 08:43:44;;;;;;;71.45;32.80;;;;;;;-1.42;100.00;96818.63;4823769;29;20050;-74
2020/12/12 08:46:15;;;;;;;77.30;35.63;;;;;;;-1.39;100.00;96827.94;4831554;29;20054;-74
2020/12/12 08:48:43;;;;;;;76.25;33.92;;;;;;;-1.30;100.00;96824.94;4840401;29;20079;-74
2020/12/12 08:51:09;;;;;;;69.40;32.28;;;;;;;-1.18;100.00;96816.69;4839473;29;20054;-72
2020/12/12 08:53:38;;;;;;;78.10;33.33;;;;;;;-1.28;100.00;96828.31;4839980;29;20414;-72
2020/12/12 08:56:12;;;;;;;64.15;31.95;;;;;;;-1.23;100.00;96828.94;4834595;29;20054;-73
2020/12/12 08:59:06;;;;;;;70.75;31.95;;;;;;;-1.29;100.00;96835.16;4808712;29;20248;-73
2020/12/12 09:01:38;;;;;;;68.25;33.08;;;;;;;-1.23;100.00;96825.53;4841180;29;20054;-72
2020/12/12 09:04:20;;;;;;;67.40;31.98;;;;;;;-1.15;100.00;96824.25;4843989;29;20076;-73
2020/12/12 09:06:47;;;;;;;64.70;32.80;;;;;;;-1.24;100.00;96837.53;4829389;29;20054;-74
2020/12/12 09:09:19;;;;;;;73.53;34.47;;;;;;;-1.15;100.00;96829.41;4825109;29;20179;-73
2020/12/12 09:11:54;;;;;;;66.20;32.75;;;;;;;-1.03;100.00;96827.22;4842883;29;20065;-73
2020/12/12 09:14:21;;;;;;;73.38;34.20;;;;;;;-0.93;100.00;96833.59;4843292;29;20092;-78
2020/12/12 09:17:00;;;;;;;64.95;31.70;;;;;;;-0.77;99.79;96826.84;4841155;29;20395;-74
2020/12/12 09:19:28;;;;;;;68.13;33.60;;;;;;;-0.61;99.05;96824.38;4826559;29;20096;-75
2020/12/12 09:21:54;;;;;;;63.72;31.88;;;;;;;-0.76;99.49;96830.22;4827302;29;20507;-74
2020/12/12 09:24:22;;;;;;;73.28;32.88;;;;;;;-0.79;99.39;96820.09;4825489;29;20176;-79
2020/12/12 09:26:53;;;;;;;66.63;32.63;;;;;;;-0.83;100.00;96821.97;4842689;29;20105;-74
2020/12/12 09:29:19;;;;;;;66.55;31.98;;;;;;;-0.88;100.00;96826.50;4843960;29;20059;-79
2020/12/12 09:31:45;;;;;;;66.43;32.83;;;;;;;-0.82;100.00;96823.66;4836544;29;20046;-74
2020/12/12 09:34:11;;;;;;;66.22;33.47;;;;;;;-0.93;100.00;96823.28;4808043;29;20453;-74
2020/12/12 09:36:37;;;;;;;65.18;33.10;;;;;;;-0.90;99.75;96833.44;4838343;29;20054;-74
2020/12/12 09:39:03;;;;;;;68.57;32.63;;;;;;;-1.02;100.00;96824.56;4825688;29;20069;-73
2020/12/12 09:41:29;;;;;;;70.10;34.03;;;;;;;-1.03;100.00;96828.03;4829263;29;20038;-73
2020/12/12 09:43:55;;;;;;;62.78;32.03;;;;;;;-1.02;100.00;96821.13;4827065;29;20057;-74
2020/12/12 09:46:21;;;;;;;71.78;33.88;;;;;;;-0.98;100.00;96820.94;4826058;29;20423;-79
2020/12/12 09:48:48;;;;;;;72.63;34.72;;;;;;;-1.03;100.00;96822.06;4833397;29;20171;-75
2020/12/12 09:51:16;;;;;;;63.53;31.40;;;;;;;-0.96;100.00;96829.44;4825675;29;20498;-74
2020/12/12 09:53:44;;;;;;;78.10;35.70;;;;;;;-0.81;100.00;96817.59;4824582;29;20046;-75
2020/12/12 09:56:14;;;;;;;80.55;38.78;;;;;;;-0.83;100.00;96816.00;4824633;29;20099;-73
2020/12/12 09:58:40;;;;;;;72.53;36.30;;;;;;;-0.87;100.00;96812.72;4840074;29;20074;-73
2020/12/12 10:01:06;;;;;;;66.55;34.53;;;;;;;-1.01;100.00;96817.66;4841621;29;20433;-73
2020/12/12 10:03:32;;;;;;;67.38;33.70;;;;;;;-0.86;100.00;96814.41;4825000;29;20059;-75
2020/12/12 10:05:58;;;;;;;69.30;35.47;;;;;;;-1.09;100.00;96820.59;4824150;29;20166;-74
2020/12/12 10:08:23;;;;;;;71.68;36.28;;;;;;;-0.98;100.00;96828.66;4839039;29;20137;-77
2020/12/12 10:10:49;;;;;;;69.88;34.40;;;;;;;-0.99;100.00;96826.16;4823748;29;20046;-73
2020/12/12 10:13:15;;;;;;;75.30;37.40;;;;;;;-1.02;100.00;96828.84;4841751;29;20460;-73
2020/12/12 10:15:41;;;;;;;74.40;36.53;;;;;;;-1.00;100.00;96822.75;4842063;29;20106;-72
2020/12/12 10:18:08;;;;;;;77.50;38.10;;;;;;;-1.01;100.00;96826.22;4842614;29;20050;-73
2020/12/12 10:20:35;;;;;;;69.38;35.85;;;;;;;-0.98;100.00;96825.25;4835194;29;20046;-72
2020/12/12 10:23:02;;;;;;;81.10;38.50;;;;;;;-0.84;100.00;96840.06;4828718;29;20055;-72
2020/12/12 10:25:28;;;;;;;73.32;37.70;;;;;;;-0.88;100.00;96836.81;4823973;29;20396;-73
2020/12/12 10:27:55;;;;;;;74.15;38.63;;;;;;;-0.82;100.00;96833.94;4807982;29;20065;-73
2020/12/12 10:30:21;;;;;;;73.32;37.60;;;;;;;-0.71;100.00;96833.44;4824779;29;20133;-72
2020/12/12 10:32:46;;;;;;;72.43;37.63;;;;;;;-0.72;100.00;96832.59;4834459;29;20175;-73
2020/12/12 10:35:12;;;;;;;72.68;37.10;;;;;;;-0.32;98.42;96829.06;4842095;29;20202;-73
2020/12/12 10:37:39;;;;;;;68.38;36.20;;;;;;;-0.52;98.39;96825.69;4841808;29;20554;-73
2020/12/12 10:40:28;;;;;;;64.88;34.50;;;;;;;-0.57;98.14;96835.38;4836722;29;20515;-73
2020/12/12 10:42:54;;;;;;;73.95;37.60;;;;;;;-0.70;99.25;96835.09;4836816;29;20057;-73
2020/12/12 10:45:19;;;;;;;78.18;36.78;;;;;;;-0.68;98.94;96827.31;4841623;29;20501;-75
2020/12/12 10:47:46;;;;;;;72.68;37.08;;;;;;;-0.63;99.99;96831.34;4823674;29;20058;-73
2020/12/12 10:50:13;;;;;;;76.03;35.92;;;;;;;-0.57;98.70;96835.38;4830868;29;20049;-71
2020/12/12 10:52:39;;;;;;;64.85;33.67;;;;;;;-0.46;99.33;96830.53;4830183;29;20062;-73
2020/12/12 10:55:05;;;;;;;59.85;32.60;;;;;;;-0.42;97.65;96828.66;4824083;29;20121;-75
2020/12/12 10:57:31;;;;;;;67.38;33.72;;;;;;;-0.25;96.97;96833.00;4823440;29;20076;-73
2020/12/12 10:59:58;;;;;;;63.28;32.85;;;;;;;-0.17;96.00;96832.63;4827753;29;20574;-73
2020/12/12 11:02:27;;;;;;;65.32;34.33;;;;;;;-0.21;96.29;96826.78;4832510;29;20077;-73
2020/12/12 11:04:52;;;;;;;66.72;34.80;;;;;;;-0.37;97.05;96827.53;4823155;29;20117;-74
2020/12/12 11:07:18;;;;;;;79.55;38.03;;;;;;;-0.41;98.90;96833.72;4823980;29;20133;-74
2020/12/12 11:09:45;;;;;;;78.70;37.85;;;;;;;-0.53;99.63;96830.91;4811187;29;20117;-74
2020/12/12 11:12:13;;;;;;;73.45;36.33;;;;;;;-0.47;98.76;96833.19;4840980;29;20087;-74
2020/12/12 11:14:40;;;;;;;75.32;37.20;;;;;;;-0.54;99.36;96835.22;4840341;29;20121;-74
2020/12/12 11:17:06;;;;;;;72.13;34.72;;;;;;;-0.41;97.56;96831.16;4840950;29;20045;-74
2020/12/12 11:19:32;;;;;;;83.22;38.75;;;;;;;-0.58;100.00;96841.41;4838026;29;20102;-72
2020/12/12 11:21:59;;;;;;;80.82;39.28;;;;;;;-0.59;100.00;96838.03;4838038;29;20073;-74
2020/12/12 11:24:25;;;;;;;86.47;40.90;;;;;;;-0.64;100.00;96837.38;4832367;29;20510;-76
2020/12/12 11:26:52;;;;;;;92.85;43.17;;;;;;;-0.72;100.00;96829.19;4833166;29;20065;-73
2020/12/12 11:29:19;;;;;;;94.85;44.05;;;;;;;-0.73;100.00;96833.53;4830745;29;20057;-73
2020/12/12 11:31:49;;;;;;;86.88;42.00;;;;;;;-0.65;100.00;96827.16;4841348;29;20066;-74
2020/12/12 11:39:31;;;;;;;78.00;38.08;;;;;;;-0.43;99.14;96817.53;4841671;29;20516;-74
2020/12/12 11:46:55;;;;;;;83.28;39.33;;;;;;;-0.33;100.00;96824.81;4840813;29;20506;-76
2020/12/12 11:49:21;;;;;;;84.72;39.80;;;;;;;-0.37;100.00;96837.84;4824759;29;20079;-74
2020/12/12 11:51:47;;;;;;;81.78;39.00;;;;;;;-0.35;99.42;96835.19;4840605;29;20069;-73
2020/12/12 11:54:13;;;;;;;80.75;38.20;;;;;;;-0.43;100.00;96848.41;4840865;29;20050;-74
2020/12/12 11:56:39;;;;;;;82.07;39.20;;;;;;;-0.28;99.07;96840.88;4838811;29;20056;-73
2020/12/12 11:59:05;;;;;;;85.60;40.63;;;;;;;-0.20;97.71;96844.75;4840269;29;20054;-73
2020/12/12 12:01:31;;;;;;;80.47;40.13;;;;;;;-0.20;98.19;96847.31;4840901;29;20513;-78
2020/12/12 12:03:57;;;;;;;86.60;42.20;;;;;;;-0.12;99.70;96848.69;4824736;29;20050;-73
2020/12/12 12:06:24;;;;;;;81.93;39.80;;;;;;;-0.21;99.58;96849.97;4822474;29;20128;-74
2020/12/12 12:11:33;;;;;;;82.93;40.55;;;;;;;-0.34;100.00;96842.00;4841037;29;20141;-72
2020/12/12 12:14:00;;;;;;;78.45;38.90;;;;;;;-0.36;99.22;96843.81;4839941;29;20054;-73
2020/12/12 12:16:27;;;;;;;77.20;37.70;;;;;;;-0.24;98.68;96844.97;4836028;29;20069;-73
2020/12/12 12:18:53;;;;;;;68.10;34.30;;;;;;;-0.22;97.83;96840.56;4840673;29;20127;-73
2020/12/12 12:21:19;;;;;;;75.47;37.15;;;;;;;-0.25;99.16;96844.16;4841052;29;20050;-73
2020/12/12 12:23:45;;;;;;;74.90;36.40;;;;;;;-0.02;98.71;96847.31;4840349;29;20054;-73
2020/12/12 12:26:13;;;;;;;68.85;35.03;;;;;;;-0.13;98.17;96844.44;4840261;29;20038;-73
2020/12/12 12:28:39;;;;;;;67.35;35.67;;;;;;;-0.14;98.26;96846.19;4839826;29;20465;-76
2020/12/12 12:31:05;;;;;;;68.28;33.97;;;;;;;-0.17;98.67;96850.66;4841236;29;20046;-73
2020/12/12 12:33:31;;;;;;;68.65;35.33;;;;;;;-0.20;98.66;96849.06;4844603;29;20057;-72
2020/12/12 12:35:56;;;;;;;69.93;35.47;;;;;;;-0.24;99.08;96852.69;4840733;29;20050;-73
2020/12/12 12:38:22;;;;;;;68.18;34.70;;;;;;;-0.17;97.78;96854.06;4844358;29;20062;-73
2020/12/12 12:40:48;;;;;;;71.38;35.60;;;;;;;-0.22;97.92;96851.72;4843906;29;20421;-73
2020/12/12 12:43:14;;;;;;;58.92;32.20;;;;;;;-0.16;96.34;96839.44;4844802;29;20046;-73
2020/12/12 12:45:41;;;;;;;63.10;31.17;;;;;;;-0.25;97.87;96851.00;4826239;29;20041;-73
2020/12/12 12:48:07;;;;;;;63.58;33.30;;;;;;;-0.37;97.68;96842.97;4838985;29;20074;-77
2020/12/12 12:50:33;;;;;;;75.43;36.80;;;;;;;-0.25;97.11;96840.72;4842968;29;20046;-77
2020/12/12 12:53:07;;;;;;;68.25;34.63;;;;;;;-0.31;97.82;96843.59;4842491;29;20057;-72